sensor_id;sensor_type;location;lat;lon;timestamp;P1;durP1;ratioP1;P2;durP2;ratioP2
78346;SDS011;67803;41.330;69.282;2023-03-14T00:02:06;4.78;;;1.50;;
78346;SDS011;67803;41.330;69.282;2023-03-14T00:04:36;3.70;;;1.25;;
78346;SDS011;67803;41.330;69.282;2023-03-14T00:07:07;3.40;;;1.13;;
78346;SDS011;67803;41.330;69.282;2023-03-14T00:09:37;2.70;;;1.10;;
78346;SDS011;67803;41.330;69.282;2023-03-14T00:12:08;2.58;;;1.20;;
78346;SDS011;67803;41.330;69.282;2023-03-14T00:14:38;2.90;;;1.10;;
78346;SDS011;67803;41.330;69.282;2023-03-14T00:17:09;2.15;;;1.05;;
78346;SDS011;67803;41.330;69.282;2023-03-14T00:19:39;2.63;;;0.73;;
78346;SDS011;67803;41.330;69.282;2023-03-14T00:22:10;1.90;;;0.88;;
78346;SDS011;67803;41.330;69.282;2023-03-14T00:24:40;3.42;;;0.82;;
78346;SDS011;67803;41.330;69.282;2023-03-14T00:27:11;2.55;;;0.95;;
78346;SDS011;67803;41.330;69.282;2023-03-14T00:29:42;4.35;;;1.25;;
78346;SDS011;67803;41.330;69.282;2023-03-14T00:32:12;2.97;;;0.88;;
78346;SDS011;67803;41.330;69.282;2023-03-14T00:34:42;1.63;;;0.80;;
78346;SDS011;67803;41.330;69.282;2023-03-14T00:37:13;2.25;;;0.90;;
78346;SDS011;67803;41.330;69.282;2023-03-14T00:39:43;2.08;;;0.82;;
78346;SDS011;67803;41.330;69.282;2023-03-14T00:42:14;1.80;;;0.80;;
78346;SDS011;67803;41.330;69.282;2023-03-14T00:44:44;2.30;;;0.98;;
78346;SDS011;67803;41.330;69.282;2023-03-14T00:47:15;1.67;;;0.80;;
78346;SDS011;67803;41.330;69.282;2023-03-14T00:49:45;2.70;;;1.02;;
78346;SDS011;67803;41.330;69.282;2023-03-14T00:52:16;5.38;;;1.50;;
78346;SDS011;67803;41.330;69.282;2023-03-14T00:54:47;2.35;;;0.90;;
78346;SDS011;67803;41.330;69.282;2023-03-14T00:57:17;3.95;;;1.55;;
78346;SDS011;67803;41.330;69.282;2023-03-14T00:59:48;4.82;;;1.23;;
78346;SDS011;67803;41.330;69.282;2023-03-14T01:02:18;1.58;;;0.98;;
78346;SDS011;67803;41.330;69.282;2023-03-14T01:04:49;3.40;;;0.82;;
78346;SDS011;67803;41.330;69.282;2023-03-14T01:07:19;2.28;;;1.08;;
78346;SDS011;67803;41.330;69.282;2023-03-14T01:09:51;1.98;;;1.13;;
78346;SDS011;67803;41.330;69.282;2023-03-14T01:12:21;3.40;;;1.20;;
78346;SDS011;67803;41.330;69.282;2023-03-14T01:14:52;3.55;;;1.30;;
78346;SDS011;67803;41.330;69.282;2023-03-14T01:17:22;2.33;;;1.10;;
78346;SDS011;67803;41.330;69.282;2023-03-14T01:19:52;4.10;;;1.02;;
78346;SDS011;67803;41.330;69.282;2023-03-14T01:22:23;1.88;;;1.00;;
78346;SDS011;67803;41.330;69.282;2023-03-14T01:24:53;2.00;;;1.17;;
78346;SDS011;67803;41.330;69.282;2023-03-14T01:27:24;5.53;;;1.35;;
78346;SDS011;67803;41.330;69.282;2023-03-14T01:29:54;2.65;;;1.10;;
78346;SDS011;67803;41.330;69.282;2023-03-14T01:32:24;4.18;;;1.27;;
78346;SDS011;67803;41.330;69.282;2023-03-14T01:34:55;1.90;;;1.20;;
78346;SDS011;67803;41.330;69.282;2023-03-14T01:37:26;2.60;;;1.30;;
78346;SDS011;67803;41.330;69.282;2023-03-14T01:39:56;2.92;;;1.13;;
78346;SDS011;67803;41.330;69.282;2023-03-14T01:42:26;3.33;;;1.17;;
78346;SDS011;67803;41.330;69.282;2023-03-14T01:44:59;4.10;;;1.23;;
78346;SDS011;67803;41.330;69.282;2023-03-14T01:47:29;2.20;;;1.10;;
78346;SDS011;67803;41.330;69.282;2023-03-14T01:50:04;8.20;;;2.53;;
78346;SDS011;67803;41.330;69.282;2023-03-14T01:52:41;5.30;;;1.30;;
78346;SDS011;67803;41.330;69.282;2023-03-14T01:55:13;4.55;;;1.20;;
78346;SDS011;67803;41.330;69.282;2023-03-14T01:57:46;3.00;;;1.33;;
78346;SDS011;67803;41.330;69.282;2023-03-14T02:00:19;4.75;;;1.23;;
78346;SDS011;67803;41.330;69.282;2023-03-14T02:02:51;5.32;;;1.33;;
78346;SDS011;67803;41.330;69.282;2023-03-14T02:05:25;8.93;;;1.33;;
78346;SDS011;67803;41.330;69.282;2023-03-14T02:07:57;2.80;;;1.10;;
78346;SDS011;67803;41.330;69.282;2023-03-14T02:10:33;3.13;;;1.23;;
78346;SDS011;67803;41.330;69.282;2023-03-14T02:13:04;3.90;;;1.00;;
78346;SDS011;67803;41.330;69.282;2023-03-14T02:15:35;3.22;;;1.20;;
78346;SDS011;67803;41.330;69.282;2023-03-14T02:18:05;8.25;;;3.28;;
78346;SDS011;67803;41.330;69.282;2023-03-14T02:23:07;4.47;;;1.25;;
78346;SDS011;67803;41.330;69.282;2023-03-14T02:25:43;6.40;;;1.30;;
78346;SDS011;67803;41.330;69.282;2023-03-14T02:28:16;4.80;;;1.40;;
78346;SDS011;67803;41.330;69.282;2023-03-14T02:30:46;3.03;;;1.48;;
78346;SDS011;67803;41.330;69.282;2023-03-14T02:33:17;3.47;;;2.08;;
78346;SDS011;67803;41.330;69.282;2023-03-14T02:41:01;5.75;;;1.50;;
78346;SDS011;67803;41.330;69.282;2023-03-14T02:43:32;9.00;;;1.70;;
78346;SDS011;67803;41.330;69.282;2023-03-14T02:46:03;8.88;;;1.85;;
78346;SDS011;67803;41.330;69.282;2023-03-14T02:48:45;5.30;;;1.48;;
78346;SDS011;67803;41.330;69.282;2023-03-14T02:51:17;8.48;;;1.50;;
78346;SDS011;67803;41.330;69.282;2023-03-14T02:53:48;10.90;;;2.03;;
78346;SDS011;67803;41.330;69.282;2023-03-14T02:56:18;4.40;;;1.60;;
78346;SDS011;67803;41.330;69.282;2023-03-14T02:58:49;9.48;;;1.70;;
78346;SDS011;67803;41.330;69.282;2023-03-14T03:01:19;7.68;;;1.67;;
78346;SDS011;67803;41.330;69.282;2023-03-14T03:03:50;7.55;;;1.80;;
78346;SDS011;67803;41.330;69.282;2023-03-14T03:06:20;6.05;;;1.20;;
78346;SDS011;67803;41.330;69.282;2023-03-14T03:08:50;7.85;;;1.45;;
78346;SDS011;67803;41.330;69.282;2023-03-14T03:11:21;24.55;;;2.42;;
78346;SDS011;67803;41.330;69.282;2023-03-14T03:13:51;5.22;;;1.45;;
78346;SDS011;67803;41.330;69.282;2023-03-14T03:16:22;5.47;;;1.20;;
78346;SDS011;67803;41.330;69.282;2023-03-14T03:18:52;7.80;;;1.55;;
78346;SDS011;67803;41.330;69.282;2023-03-14T03:21:23;5.45;;;1.73;;
78346;SDS011;67803;41.330;69.282;2023-03-14T03:23:53;5.25;;;1.55;;
78346;SDS011;67803;41.330;69.282;2023-03-14T03:26:24;5.45;;;1.48;;
78346;SDS011;67803;41.330;69.282;2023-03-14T03:28:54;5.97;;;1.80;;
78346;SDS011;67803;41.330;69.282;2023-03-14T03:31:24;3.15;;;1.40;;
78346;SDS011;67803;41.330;69.282;2023-03-14T03:33:56;15.05;;;2.22;;
78346;SDS011;67803;41.330;69.282;2023-03-14T03:36:26;8.85;;;1.80;;
78346;SDS011;67803;41.330;69.282;2023-03-14T03:38:56;6.07;;;1.83;;
78346;SDS011;67803;41.330;69.282;2023-03-14T03:41:27;6.50;;;1.70;;
78346;SDS011;67803;41.330;69.282;2023-03-14T03:43:57;11.70;;;2.28;;
78346;SDS011;67803;41.330;69.282;2023-03-14T03:46:28;15.23;;;1.80;;
78346;SDS011;67803;41.330;69.282;2023-03-14T03:48:59;8.38;;;1.75;;
78346;SDS011;67803;41.330;69.282;2023-03-14T03:51:29;7.28;;;1.35;;
78346;SDS011;67803;41.330;69.282;2023-03-14T03:54:00;2.45;;;1.45;;
78346;SDS011;67803;41.330;69.282;2023-03-14T03:56:30;4.13;;;1.60;;
78346;SDS011;67803;41.330;69.282;2023-03-14T03:59:01;14.82;;;1.80;;
78346;SDS011;67803;41.330;69.282;2023-03-14T04:01:32;8.10;;;1.88;;
78346;SDS011;67803;41.330;69.282;2023-03-14T04:04:02;8.43;;;1.65;;
78346;SDS011;67803;41.330;69.282;2023-03-14T04:06:32;7.10;;;1.83;;
78346;SDS011;67803;41.330;69.282;2023-03-14T04:09:03;6.97;;;1.60;;
78346;SDS011;67803;41.330;69.282;2023-03-14T04:11:34;13.50;;;2.17;;
78346;SDS011;67803;41.330;69.282;2023-03-14T04:14:04;12.68;;;2.30;;
78346;SDS011;67803;41.330;69.282;2023-03-14T04:16:35;9.63;;;2.03;;
78346;SDS011;67803;41.330;69.282;2023-03-14T04:19:06;7.32;;;1.67;;
78346;SDS011;67803;41.330;69.282;2023-03-14T04:21:36;6.22;;;2.00;;
78346;SDS011;67803;41.330;69.282;2023-03-14T04:24:06;7.93;;;2.35;;
78346;SDS011;67803;41.330;69.282;2023-03-14T04:26:37;14.40;;;2.00;;
78346;SDS011;67803;41.330;69.282;2023-03-14T04:29:07;5.53;;;1.73;;
78346;SDS011;67803;41.330;69.282;2023-03-14T04:31:38;14.15;;;2.00;;
78346;SDS011;67803;41.330;69.282;2023-03-14T04:34:08;10.38;;;2.15;;
78346;SDS011;67803;41.330;69.282;2023-03-14T04:36:38;8.85;;;2.25;;
78346;SDS011;67803;41.330;69.282;2023-03-14T04:39:09;6.53;;;2.20;;
78346;SDS011;67803;41.330;69.282;2023-03-14T04:41:39;4.85;;;2.10;;
78346;SDS011;67803;41.330;69.282;2023-03-14T04:44:10;8.75;;;2.40;;
78346;SDS011;67803;41.330;69.282;2023-03-14T04:46:40;5.97;;;2.25;;
78346;SDS011;67803;41.330;69.282;2023-03-14T04:49:10;10.50;;;2.05;;
78346;SDS011;67803;41.330;69.282;2023-03-14T04:51:41;9.38;;;2.20;;
78346;SDS011;67803;41.330;69.282;2023-03-14T04:54:11;8.80;;;2.60;;
78346;SDS011;67803;41.330;69.282;2023-03-14T04:56:42;9.98;;;2.22;;
78346;SDS011;67803;41.330;69.282;2023-03-14T04:59:12;5.70;;;1.92;;
78346;SDS011;67803;41.330;69.282;2023-03-14T05:01:43;6.32;;;1.88;;
78346;SDS011;67803;41.330;69.282;2023-03-14T05:04:13;5.90;;;2.10;;
78346;SDS011;67803;41.330;69.282;2023-03-14T05:06:43;9.43;;;2.10;;
78346;SDS011;67803;41.330;69.282;2023-03-14T05:09:14;12.02;;;2.30;;
78346;SDS011;67803;41.330;69.282;2023-03-14T05:11:45;12.38;;;2.72;;
78346;SDS011;67803;41.330;69.282;2023-03-14T05:14:15;14.40;;;2.30;;
78346;SDS011;67803;41.330;69.282;2023-03-14T05:16:46;9.30;;;3.00;;
78346;SDS011;67803;41.330;69.282;2023-03-14T05:19:16;7.90;;;2.53;;
78346;SDS011;67803;41.330;69.282;2023-03-14T05:21:47;6.43;;;1.95;;
78346;SDS011;67803;41.330;69.282;2023-03-14T05:24:17;4.30;;;1.67;;
78346;SDS011;67803;41.330;69.282;2023-03-14T05:26:47;8.75;;;2.20;;
78346;SDS011;67803;41.330;69.282;2023-03-14T05:29:18;10.10;;;2.28;;
78346;SDS011;67803;41.330;69.282;2023-03-14T05:31:48;7.70;;;2.30;;
78346;SDS011;67803;41.330;69.282;2023-03-14T05:34:19;5.22;;;2.30;;
78346;SDS011;67803;41.330;69.282;2023-03-14T05:36:49;6.57;;;1.98;;
78346;SDS011;67803;41.330;69.282;2023-03-14T05:39:20;6.50;;;2.35;;
78346;SDS011;67803;41.330;69.282;2023-03-14T05:41:50;6.55;;;2.30;;
78346;SDS011;67803;41.330;69.282;2023-03-14T05:44:21;27.48;;;3.58;;
78346;SDS011;67803;41.330;69.282;2023-03-14T05:46:51;9.27;;;3.08;;
78346;SDS011;67803;41.330;69.282;2023-03-14T05:49:21;6.70;;;1.98;;
78346;SDS011;67803;41.330;69.282;2023-03-14T05:51:52;3.50;;;2.08;;
78346;SDS011;67803;41.330;69.282;2023-03-14T05:54:22;7.65;;;2.15;;
78346;SDS011;67803;41.330;69.282;2023-03-14T05:56:53;20.08;;;2.80;;
78346;SDS011;67803;41.330;69.282;2023-03-14T05:59:23;4.78;;;1.65;;
78346;SDS011;67803;41.330;69.282;2023-03-14T06:01:54;4.43;;;2.00;;
78346;SDS011;67803;41.330;69.282;2023-03-14T06:04:24;5.38;;;1.75;;
78346;SDS011;67803;41.330;69.282;2023-03-14T06:06:54;4.93;;;1.58;;
78346;SDS011;67803;41.330;69.282;2023-03-14T06:09:25;5.32;;;1.80;;
78346;SDS011;67803;41.330;69.282;2023-03-14T06:11:55;7.47;;;1.75;;
78346;SDS011;67803;41.330;69.282;2023-03-14T06:14:26;4.25;;;1.50;;
78346;SDS011;67803;41.330;69.282;2023-03-14T06:16:58;4.25;;;1.58;;
78346;SDS011;67803;41.330;69.282;2023-03-14T06:19:29;3.00;;;1.42;;
78346;SDS011;67803;41.330;69.282;2023-03-14T06:21:59;5.85;;;1.30;;
78346;SDS011;67803;41.330;69.282;2023-03-14T06:24:29;3.58;;;1.40;;
78346;SDS011;67803;41.330;69.282;2023-03-14T06:27:00;35.38;;;4.72;;
78346;SDS011;67803;41.330;69.282;2023-03-14T06:29:32;17.00;;;3.33;;
78346;SDS011;67803;41.330;69.282;2023-03-14T06:32:03;11.35;;;2.50;;
78346;SDS011;67803;41.330;69.282;2023-03-14T06:34:34;4.78;;;1.55;;
78346;SDS011;67803;41.330;69.282;2023-03-14T06:37:05;8.90;;;2.10;;
78346;SDS011;67803;41.330;69.282;2023-03-14T06:39:35;2.28;;;1.73;;
78346;SDS011;67803;41.330;69.282;2023-03-14T06:42:07;6.50;;;1.92;;
78346;SDS011;67803;41.330;69.282;2023-03-14T06:44:38;5.90;;;2.10;;
78346;SDS011;67803;41.330;69.282;2023-03-14T06:47:08;3.90;;;1.67;;
78346;SDS011;67803;41.330;69.282;2023-03-14T06:49:38;17.17;;;2.53;;
78346;SDS011;67803;41.330;69.282;2023-03-14T06:52:09;34.70;;;4.20;;
78346;SDS011;67803;41.330;69.282;2023-03-14T06:54:39;9.65;;;2.00;;
78346;SDS011;67803;41.330;69.282;2023-03-14T06:57:10;6.30;;;1.90;;
78346;SDS011;67803;41.330;69.282;2023-03-14T06:59:40;4.28;;;1.90;;
78346;SDS011;67803;41.330;69.282;2023-03-14T07:02:11;17.70;;;2.60;;
78346;SDS011;67803;41.330;69.282;2023-03-14T07:04:42;5.60;;;1.65;;
78346;SDS011;67803;41.330;69.282;2023-03-14T07:07:12;9.32;;;2.10;;
78346;SDS011;67803;41.330;69.282;2023-03-14T07:09:43;4.63;;;1.65;;
78346;SDS011;67803;41.330;69.282;2023-03-14T07:12:13;9.25;;;1.60;;
78346;SDS011;67803;41.330;69.282;2023-03-14T07:14:44;3.15;;;1.50;;
78346;SDS011;67803;41.330;69.282;2023-03-14T07:17:14;6.80;;;1.60;;
78346;SDS011;67803;41.330;69.282;2023-03-14T07:19:45;7.00;;;1.67;;
78346;SDS011;67803;41.330;69.282;2023-03-14T07:22:16;5.97;;;2.38;;
78346;SDS011;67803;41.330;69.282;2023-03-14T07:24:46;5.75;;;3.33;;
78346;SDS011;67803;41.330;69.282;2023-03-14T07:27:16;9.27;;;2.75;;
78346;SDS011;67803;41.330;69.282;2023-03-14T07:29:47;4.95;;;2.40;;
78346;SDS011;67803;41.330;69.282;2023-03-14T07:32:17;4.50;;;1.92;;
78346;SDS011;67803;41.330;69.282;2023-03-14T07:34:48;4.97;;;2.15;;
78346;SDS011;67803;41.330;69.282;2023-03-14T07:37:18;4.47;;;2.13;;
78346;SDS011;67803;41.330;69.282;2023-03-14T07:39:49;5.20;;;2.40;;
78346;SDS011;67803;41.330;69.282;2023-03-14T07:42:19;5.93;;;2.50;;
78346;SDS011;67803;41.330;69.282;2023-03-14T07:44:50;7.40;;;2.70;;
78346;SDS011;67803;41.330;69.282;2023-03-14T07:47:20;6.68;;;2.80;;
78346;SDS011;67803;41.330;69.282;2023-03-14T07:49:50;8.65;;;3.15;;
78346;SDS011;67803;41.330;69.282;2023-03-14T07:52:21;5.20;;;2.92;;
78346;SDS011;67803;41.330;69.282;2023-03-14T07:54:51;7.93;;;3.17;;
78346;SDS011;67803;41.330;69.282;2023-03-14T07:57:22;10.32;;;2.95;;
78346;SDS011;67803;41.330;69.282;2023-03-14T07:59:52;7.60;;;2.97;;
78346;SDS011;67803;41.330;69.282;2023-03-14T08:02:22;6.95;;;2.47;;
78346;SDS011;67803;41.330;69.282;2023-03-14T08:04:54;7.43;;;2.63;;
78346;SDS011;67803;41.330;69.282;2023-03-14T08:07:24;5.90;;;2.97;;
78346;SDS011;67803;41.330;69.282;2023-03-14T08:09:54;5.97;;;2.40;;
78346;SDS011;67803;41.330;69.282;2023-03-14T08:12:25;7.38;;;3.28;;
78346;SDS011;67803;41.330;69.282;2023-03-14T08:14:55;4.55;;;2.17;;
78346;SDS011;67803;41.330;69.282;2023-03-14T08:17:26;5.93;;;2.42;;
78346;SDS011;67803;41.330;69.282;2023-03-14T08:19:57;7.70;;;3.05;;
78346;SDS011;67803;41.330;69.282;2023-03-14T08:22:28;4.25;;;2.25;;
78346;SDS011;67803;41.330;69.282;2023-03-14T08:24:59;17.92;;;3.13;;
78346;SDS011;67803;41.330;69.282;2023-03-14T08:27:31;4.07;;;2.45;;
78346;SDS011;67803;41.330;69.282;2023-03-14T08:30:02;4.93;;;2.10;;
78346;SDS011;67803;41.330;69.282;2023-03-14T08:32:32;10.75;;;2.28;;
78346;SDS011;67803;41.330;69.282;2023-03-14T08:35:03;5.85;;;2.30;;
78346;SDS011;67803;41.330;69.282;2023-03-14T08:37:34;6.40;;;2.30;;
78346;SDS011;67803;41.330;69.282;2023-03-14T08:40:06;11.00;;;2.60;;
78346;SDS011;67803;41.330;69.282;2023-03-14T08:42:37;4.72;;;2.03;;
78346;SDS011;67803;41.330;69.282;2023-03-14T08:45:09;3.80;;;2.33;;
78346;SDS011;67803;41.330;69.282;2023-03-14T08:47:40;6.03;;;2.72;;
78346;SDS011;67803;41.330;69.282;2023-03-14T08:50:11;7.20;;;2.65;;
78346;SDS011;67803;41.330;69.282;2023-03-14T08:52:42;10.65;;;3.05;;
78346;SDS011;67803;41.330;69.282;2023-03-14T08:55:13;6.40;;;3.03;;
78346;SDS011;67803;41.330;69.282;2023-03-14T08:57:44;5.53;;;2.47;;
78346;SDS011;67803;41.330;69.282;2023-03-14T09:00:16;5.93;;;2.60;;
78346;SDS011;67803;41.330;69.282;2023-03-14T09:02:47;4.40;;;2.60;;
78346;SDS011;67803;41.330;69.282;2023-03-14T09:05:17;6.38;;;2.85;;
78346;SDS011;67803;41.330;69.282;2023-03-14T09:07:47;4.78;;;2.42;;
78346;SDS011;67803;41.330;69.282;2023-03-14T09:10:18;7.43;;;2.47;;
78346;SDS011;67803;41.330;69.282;2023-03-14T09:12:48;5.03;;;2.00;;
78346;SDS011;67803;41.330;69.282;2023-03-14T09:15:19;5.13;;;2.33;;
78346;SDS011;67803;41.330;69.282;2023-03-14T09:17:49;5.13;;;2.38;;
78346;SDS011;67803;41.330;69.282;2023-03-14T09:20:20;5.97;;;2.35;;
78346;SDS011;67803;41.330;69.282;2023-03-14T09:22:50;5.35;;;2.17;;
78346;SDS011;67803;41.330;69.282;2023-03-14T09:25:21;6.97;;;2.47;;
78346;SDS011;67803;41.330;69.282;2023-03-14T09:27:51;6.65;;;2.35;;
78346;SDS011;67803;41.330;69.282;2023-03-14T09:30:22;4.13;;;2.10;;
78346;SDS011;67803;41.330;69.282;2023-03-14T09:32:52;7.35;;;2.47;;
78346;SDS011;67803;41.330;69.282;2023-03-14T09:35:23;6.70;;;2.20;;
78346;SDS011;67803;41.330;69.282;2023-03-14T09:37:53;4.18;;;1.90;;
78346;SDS011;67803;41.330;69.282;2023-03-14T09:40:23;4.95;;;2.10;;
78346;SDS011;67803;41.330;69.282;2023-03-14T09:42:54;4.25;;;2.30;;
78346;SDS011;67803;41.330;69.282;2023-03-14T09:45:26;4.30;;;2.33;;
78346;SDS011;67803;41.330;69.282;2023-03-14T09:47:57;5.68;;;2.70;;
78346;SDS011;67803;41.330;69.282;2023-03-14T09:50:45;4.80;;;2.30;;
78346;SDS011;67803;41.330;69.282;2023-03-14T09:53:17;4.80;;;2.28;;
78346;SDS011;67803;41.330;69.282;2023-03-14T09:55:49;4.10;;;1.98;;
78346;SDS011;67803;41.330;69.282;2023-03-14T09:58:20;4.05;;;2.08;;
78346;SDS011;67803;41.330;69.282;2023-03-14T10:00:52;4.95;;;2.35;;
78346;SDS011;67803;41.330;69.282;2023-03-14T10:03:33;4.85;;;2.00;;
78346;SDS011;67803;41.330;69.282;2023-03-14T10:06:09;5.80;;;2.30;;
78346;SDS011;67803;41.330;69.282;2023-03-14T10:08:41;4.85;;;2.15;;
78346;SDS011;67803;41.330;69.282;2023-03-14T10:11:13;7.22;;;2.30;;
78346;SDS011;67803;41.330;69.282;2023-03-14T10:16:40;3.20;;;2.10;;
78346;SDS011;67803;41.330;69.282;2023-03-14T10:19:12;6.35;;;2.20;;
78346;SDS011;67803;41.330;69.282;2023-03-14T10:21:43;5.03;;;2.00;;
78346;SDS011;67803;41.330;69.282;2023-03-14T10:24:33;6.78;;;2.35;;
78346;SDS011;67803;41.330;69.282;2023-03-14T10:27:05;3.58;;;1.92;;
78346;SDS011;67803;41.330;69.282;2023-03-14T10:29:35;9.77;;;2.22;;
78346;SDS011;67803;41.330;69.282;2023-03-14T10:32:21;2.63;;;1.70;;
78346;SDS011;67803;41.330;69.282;2023-03-14T10:35:06;5.57;;;2.13;;
78346;SDS011;67803;41.330;69.282;2023-03-14T10:37:36;4.32;;;2.08;;
78346;SDS011;67803;41.330;69.282;2023-03-14T10:40:19;6.32;;;2.40;;
78346;SDS011;67803;41.330;69.282;2023-03-14T10:42:50;4.30;;;2.08;;
78346;SDS011;67803;41.330;69.282;2023-03-14T10:45:30;7.25;;;2.13;;
78346;SDS011;67803;41.330;69.282;2023-03-14T10:53:24;5.50;;;2.00;;
78346;SDS011;67803;41.330;69.282;2023-03-14T10:55:55;7.32;;;2.40;;
78346;SDS011;67803;41.330;69.282;2023-03-14T10:58:27;13.50;;;2.67;;
78346;SDS011;67803;41.330;69.282;2023-03-14T11:01:00;5.85;;;2.33;;
78346;SDS011;67803;41.330;69.282;2023-03-14T11:03:32;6.25;;;2.25;;
78346;SDS011;67803;41.330;69.282;2023-03-14T11:08:37;4.80;;;2.45;;
78346;SDS011;67803;41.330;69.282;2023-03-14T11:32:00;3.60;;;2.00;;
78346;SDS011;67803;41.330;69.282;2023-03-14T11:34:53;4.65;;;2.15;;
78346;SDS011;67803;41.330;69.282;2023-03-14T11:40:05;6.40;;;2.28;;
78346;SDS011;67803;41.330;69.282;2023-03-14T11:42:36;8.80;;;2.40;;
78346;SDS011;67803;41.330;69.282;2023-03-14T11:45:14;3.75;;;2.00;;
78346;SDS011;67803;41.330;69.282;2023-03-14T11:47:47;4.32;;;2.10;;
78346;SDS011;67803;41.330;69.282;2023-03-14T11:50:27;6.40;;;2.70;;
78346;SDS011;67803;41.330;69.282;2023-03-14T11:53:01;7.35;;;2.60;;
78346;SDS011;67803;41.330;69.282;2023-03-14T11:55:37;5.53;;;2.90;;
78346;SDS011;67803;41.330;69.282;2023-03-14T12:00:45;7.50;;;2.90;;
78346;SDS011;67803;41.330;69.282;2023-03-14T12:03:35;7.70;;;2.60;;
78346;SDS011;67803;41.330;69.282;2023-03-14T12:06:24;8.90;;;2.70;;
78346;SDS011;67803;41.330;69.282;2023-03-14T12:08:56;6.47;;;2.53;;
78346;SDS011;67803;41.330;69.282;2023-03-14T12:11:42;6.43;;;2.63;;
78346;SDS011;67803;41.330;69.282;2023-03-14T12:14:36;27.88;;;4.68;;
78346;SDS011;67803;41.330;69.282;2023-03-14T12:19:37;5.10;;;2.97;;
78346;SDS011;67803;41.330;69.282;2023-03-14T12:24:51;13.95;;;2.80;;
78346;SDS011;67803;41.330;69.282;2023-03-14T12:35:37;12.18;;;2.80;;
78346;SDS011;67803;41.330;69.282;2023-03-14T12:38:15;10.60;;;3.00;;
78346;SDS011;67803;41.330;69.282;2023-03-14T12:43:39;16.33;;;3.63;;
78346;SDS011;67803;41.330;69.282;2023-03-14T12:46:26;15.82;;;3.90;;
78346;SDS011;67803;41.330;69.282;2023-03-14T12:59:18;7.45;;;2.95;;
78346;SDS011;67803;41.330;69.282;2023-03-14T13:04:46;7.70;;;3.15;;
78346;SDS011;67803;41.330;69.282;2023-03-14T13:10:02;4.68;;;2.75;;
78346;SDS011;67803;41.330;69.282;2023-03-14T13:12:45;5.15;;;2.72;;
78346;SDS011;67803;41.330;69.282;2023-03-14T13:15:21;6.50;;;2.60;;
78346;SDS011;67803;41.330;69.282;2023-03-14T13:17:53;5.63;;;3.10;;
78346;SDS011;67803;41.330;69.282;2023-03-14T13:20:34;6.47;;;3.13;;
78346;SDS011;67803;41.330;69.282;2023-03-14T13:23:05;7.65;;;2.80;;
78346;SDS011;67803;41.330;69.282;2023-03-14T13:25:37;10.23;;;3.83;;
78346;SDS011;67803;41.330;69.282;2023-03-14T13:28:08;7.53;;;3.80;;
78346;SDS011;67803;41.330;69.282;2023-03-14T13:30:40;9.32;;;3.47;;
78346;SDS011;67803;41.330;69.282;2023-03-14T13:33:14;16.40;;;3.92;;
78346;SDS011;67803;41.330;69.282;2023-03-14T13:35:46;23.25;;;3.95;;
78346;SDS011;67803;41.330;69.282;2023-03-14T13:38:18;9.88;;;3.50;;
78346;SDS011;67803;41.330;69.282;2023-03-14T13:40:50;14.73;;;4.15;;
78346;SDS011;67803;41.330;69.282;2023-03-14T13:43:28;21.13;;;3.97;;
78346;SDS011;67803;41.330;69.282;2023-03-14T13:46:07;23.40;;;4.53;;
78346;SDS011;67803;41.330;69.282;2023-03-14T13:48:40;17.35;;;3.67;;
78346;SDS011;67803;41.330;69.282;2023-03-14T13:51:13;14.75;;;4.20;;
78346;SDS011;67803;41.330;69.282;2023-03-14T13:53:44;19.10;;;4.20;;
78346;SDS011;67803;41.330;69.282;2023-03-14T13:56:16;11.82;;;3.85;;
78346;SDS011;67803;41.330;69.282;2023-03-14T13:58:46;12.13;;;4.45;;
78346;SDS011;67803;41.330;69.282;2023-03-14T14:03:49;11.23;;;4.30;;
78346;SDS011;67803;41.330;69.282;2023-03-14T14:06:23;15.57;;;4.00;;
78346;SDS011;67803;41.330;69.282;2023-03-14T14:08:56;12.45;;;4.35;;
78346;SDS011;67803;41.330;69.282;2023-03-14T14:11:41;10.55;;;4.03;;
78346;SDS011;67803;41.330;69.282;2023-03-14T14:14:17;16.27;;;5.18;;
78346;SDS011;67803;41.330;69.282;2023-03-14T14:16:49;17.00;;;4.32;;
78346;SDS011;67803;41.330;69.282;2023-03-14T14:19:20;11.55;;;4.72;;
78346;SDS011;67803;41.330;69.282;2023-03-14T14:21:52;11.25;;;4.53;;
78346;SDS011;67803;41.330;69.282;2023-03-14T14:24:23;11.25;;;4.80;;
78346;SDS011;67803;41.330;69.282;2023-03-14T14:26:58;9.73;;;4.43;;
78346;SDS011;67803;41.330;69.282;2023-03-14T14:29:30;12.27;;;4.85;;
78346;SDS011;67803;41.330;69.282;2023-03-14T14:34:38;10.60;;;5.38;;
78346;SDS011;67803;41.330;69.282;2023-03-14T14:37:20;11.57;;;5.72;;
78346;SDS011;67803;41.330;69.282;2023-03-14T14:39:51;10.95;;;5.53;;
78346;SDS011;67803;41.330;69.282;2023-03-14T14:42:24;15.15;;;6.22;;
78346;SDS011;67803;41.330;69.282;2023-03-14T14:44:55;12.10;;;6.90;;
78346;SDS011;67803;41.330;69.282;2023-03-14T14:47:27;13.23;;;6.20;;
78346;SDS011;67803;41.330;69.282;2023-03-14T14:49:59;13.77;;;6.55;;
78346;SDS011;67803;41.330;69.282;2023-03-14T14:52:33;13.23;;;7.15;;
78346;SDS011;67803;41.330;69.282;2023-03-14T14:55:11;16.20;;;7.68;;
78346;SDS011;67803;41.330;69.282;2023-03-14T14:57:47;17.13;;;7.78;;
78346;SDS011;67803;41.330;69.282;2023-03-14T15:00:19;21.42;;;8.73;;
78346;SDS011;67803;41.330;69.282;2023-03-14T15:02:54;19.70;;;8.50;;
78346;SDS011;67803;41.330;69.282;2023-03-14T15:05:28;17.67;;;9.63;;
78346;SDS011;67803;41.330;69.282;2023-03-14T15:08:12;18.88;;;9.23;;
78346;SDS011;67803;41.330;69.282;2023-03-14T15:10:43;26.95;;;14.07;;
78346;SDS011;67803;41.330;69.282;2023-03-14T15:13:13;27.92;;;13.55;;
78346;SDS011;67803;41.330;69.282;2023-03-14T15:15:44;67.47;;;18.20;;
78346;SDS011;67803;41.330;69.282;2023-03-14T15:18:17;41.03;;;18.02;;
78346;SDS011;67803;41.330;69.282;2023-03-14T15:20:48;34.88;;;18.33;;
78346;SDS011;67803;41.330;69.282;2023-03-14T15:23:19;47.50;;;20.17;;
78346;SDS011;67803;41.330;69.282;2023-03-14T15:25:50;56.08;;;21.00;;
78346;SDS011;67803;41.330;69.282;2023-03-14T15:28:21;40.60;;;20.65;;
78346;SDS011;67803;41.330;69.282;2023-03-14T15:30:53;33.38;;;16.75;;
78346;SDS011;67803;41.330;69.282;2023-03-14T15:33:25;35.95;;;18.52;;
78346;SDS011;67803;41.330;69.282;2023-03-14T15:35:55;35.70;;;16.67;;
78346;SDS011;67803;41.330;69.282;2023-03-14T15:38:27;35.35;;;17.80;;
78346;SDS011;67803;41.330;69.282;2023-03-14T15:40:57;39.03;;;17.25;;
78346;SDS011;67803;41.330;69.282;2023-03-14T15:43:28;41.78;;;17.83;;
78346;SDS011;67803;41.330;69.282;2023-03-14T15:45:58;35.05;;;17.98;;
78346;SDS011;67803;41.330;69.282;2023-03-14T15:48:29;34.78;;;16.70;;
78346;SDS011;67803;41.330;69.282;2023-03-14T15:50:59;35.33;;;17.52;;
78346;SDS011;67803;41.330;69.282;2023-03-14T15:53:30;31.65;;;16.42;;
78346;SDS011;67803;41.330;69.282;2023-03-14T15:56:00;32.33;;;16.42;;
78346;SDS011;67803;41.330;69.282;2023-03-14T15:58:31;33.55;;;16.90;;
78346;SDS011;67803;41.330;69.282;2023-03-14T16:01:03;32.10;;;17.42;;
78346;SDS011;67803;41.330;69.282;2023-03-14T16:03:34;34.10;;;17.90;;
78346;SDS011;67803;41.330;69.282;2023-03-14T16:06:05;38.05;;;18.58;;
78346;SDS011;67803;41.330;69.282;2023-03-14T16:08:35;32.10;;;17.65;;
78346;SDS011;67803;41.330;69.282;2023-03-14T16:11:06;32.17;;;16.95;;
78346;SDS011;67803;41.330;69.282;2023-03-14T16:13:36;40.08;;;18.23;;
78346;SDS011;67803;41.330;69.282;2023-03-14T16:16:08;37.35;;;17.70;;
78346;SDS011;67803;41.330;69.282;2023-03-14T16:18:38;34.58;;;17.80;;
78346;SDS011;67803;41.330;69.282;2023-03-14T16:21:13;34.72;;;17.88;;